Terminal Aerodrome Forecast
Issued by NWS

Home | Current Version | Previous Version | Text Only | Print | Product List | Glossary On
Versions: 1 2 3 4 5 6 7 8 9 10 11 12 13 14 15 16 17 18 19 20 21 22 23 24 25
000
FTUS44 KTSA 270520
TAFBVO
TAF
KBVO 270520Z 2706/2806 16009KT P6SM BKN250
      TEMPO 2707/2710 VRB15G25KT -TSRA BKN025CB
     FM271000 16007KT P6SM OVC025 PROB30 2715/2718 4SM -TSRA
      OVC015CB
     FM271800 15011G17KT P6SM VCTS BKN025CB
      TEMPO 2720/2724 2SM +TSRA BKN015CB
     FM280100 16006KT P6SM BKN050 BKN250=

USA.gov is the U.S. government's official web portal to all federal, state and local government web resources and services.